SETN Informação do Aeroporto

Informação da Pista
Runway 18 Length 7874 ft width 148 ft
Elevation 20 ft Threshold 0 ft Heading 183
Runway 36 Length 7874 ft Width 148 ft
Elevation 32 ft Threshold 0 ft Heading 3
Frequencias do Aeroporto
Tipo RDO Nome GUAYAQUIL Frequência 126.9 MHZ
Tipo TWR Nome TACHINA TW Frequência 122.8 MHZ
Navaids Aeroporto
Tipo NDB Name Esmeraldas Frequência 215 KHZ
Tipo VOR-DME Name Esmeraldas Frequência 115700 KHZ
Tempo do Aeroporto & NOTAM
ADDS - METARS form results

(1248 UTC 30 March 2020)
Data provider http://aviationweather.gov/metar/data/
 
METAR text: SETN 301200Z 15004KT 9999 FEW010 BKN100 24/24 Q1011 A2986
Conditions at: SETN (TACHINA , EC) observed 1200 UTC 30 March 2020
Temperature: 24.0°C (75°F)
Dewpoint: 24.0°C (75°F) [RH = 100%]
Pressure (altimeter): 29.85 inches Hg (1011.0 mb)
Winds: from the SSE (150 degrees) at 5 MPH (4 knots; 2.1 m/s)
Visibility: 6 or more miles (10+ km)
Ceiling: 10000 feet AGL
Clouds: few clouds at 1000 feet AGL
broken clouds at 10000 feet AGL
Weather: no significant weather observed at this time